METAR Formatted Surface Weather Observation
Issued by NWS

Home | Current Version | Previous Version | Text Only | Print | Product List | Glossary On
Versions: 1 2 3 4 5 6 7 8 9 10 11 12 13 14 15
000
SAUS41 KLWX 211155
MTRNAK
METAR KNAK 211154Z AUTO VRB04KT 10SM CLR 07/M01 A3015 RMK AO2 SLP211
T00671011 10072 20056 53004



USA.gov is the U.S. government's official web portal to all federal, state and local government web resources and services.